Wetterdaten: aktuell Donnerstag, 01.06.2023 14:33
Datum Zeit Temperatur Luftfeuchte Luftdruck Regen Wind Richtung Richtung Taupunkt Windchill Windben
01.06.2023 14:33 24,0 C 36 % 1016,0 hPa 0,0 l/m 2,1 km/h (1 Bft) SW 215 8,0 C 24,0 C 3,2 km/h (1 Bft)
01.06.2023 14:32 24,1 C 37 % 1016,0 hPa 0,0 l/m 5,0 km/h (1 Bft) S-SW 203 8,5 C 24,1 C 6,4 km/h (2 Bft)
01.06.2023 14:31 24,1 C 38 % 1016,0 hPa 0,0 l/m 7,0 km/h (2 Bft) S-SW 204 8,9 C 23,9 C 9,7 km/h (2 Bft)
01.06.2023 14:30 24,1 C 35 % 1016,0 hPa 0,0 l/m 6,6 km/h (2 Bft) W-SW 242 7,7 C 24,1 C 9,7 km/h (2 Bft)
01.06.2023 14:29 24,0 C 35 % 1016,0 hPa 0,0 l/m 4,2 km/h (1 Bft) SW 219 7,6 C 24,0 C 4,8 km/h (1 Bft)
01.06.2023 14:28 24,3 C 32 % 1016,0 hPa 0,0 l/m 1,2 km/h (1 Bft) S 171 6,5 C 24,3 C 3,2 km/h (1 Bft)
01.06.2023 14:27 24,6 C 35 % 1016,1 hPa 0,0 l/m 2,5 km/h (1 Bft) O-NO 63 8,1 C 24,6 C 4,8 km/h (1 Bft)
01.06.2023 14:26 24,7 C 34 % 1016,1 hPa 0,0 l/m 5,4 km/h (2 Bft) NO 55 7,8 C 24,7 C 8,0 km/h (2 Bft)
01.06.2023 14:25 24,8 C 32 % 1016,1 hPa 0,0 l/m 6,8 km/h (2 Bft) N-NO 13 7,0 C 24,7 C 8,0 km/h (2 Bft)
01.06.2023 14:24 24,8 C 33 % 1016,1 hPa 0,0 l/m 11,1 km/h (2 Bft) N-NW 347 7,4 C 23,7 C 14,5 km/h (3 Bft)
01.06.2023 14:23 24,9 C 32 % 1016,1 hPa 0,0 l/m 14,2 km/h (3 Bft) NW 315 7,1 C 23,3 C 16,1 km/h (3 Bft)
01.06.2023 14:22 24,9 C 34 % 1016,1 hPa 0,0 l/m 12,2 km/h (2 Bft) NW 309 7,9 C 23,6 C 16,1 km/h (3 Bft)
01.06.2023 14:21 24,8 C 31 % 1016,1 hPa 0,0 l/m 8,5 km/h (2 Bft) NW 315 6,5 C 24,3 C 12,9 km/h (3 Bft)
01.06.2023 14:20 24,9 C 33 % 1016,1 hPa 0,0 l/m 11,2 km/h (2 Bft) W 265 7,5 C 23,8 C 14,5 km/h (3 Bft)
01.06.2023 14:19 25,0 C 32 % 1016,1 hPa 0,0 l/m 12,9 km/h (3 Bft) W-NW 298 7,1 C 23,6 C 17,7 km/h (3 Bft)
01.06.2023 14:18 24,9 C 33 % 1016,1 hPa 0,0 l/m 15,2 km/h (3 Bft) W-NW 303 7,5 C 23,2 C 19,3 km/h (3 Bft)
01.06.2023 14:17 24,9 C 34 % 1016,1 hPa 0,0 l/m 9,9 km/h (2 Bft) NW 306 7,9 C 24,1 C 14,5 km/h (3 Bft)
01.06.2023 14:16 25,0 C 34 % 1016,1 hPa 0,0 l/m 11,5 km/h (2 Bft) N-NW 335 8,0 C 23,9 C 14,5 km/h (3 Bft)
01.06.2023 14:15 25,1 C 33 % 1016,2 hPa 0,0 l/m 12,4 km/h (2 Bft) N-NW 335 7,7 C 23,8 C 14,5 km/h (3 Bft)
01.06.2023 14:14 25,1 C 35 % 1016,2 hPa 0,0 l/m 17,2 km/h (3 Bft) NW 314 8,6 C 23,1 C 19,3 km/h (3 Bft)
01.06.2023 14:13 24,9 C 33 % 1016,2 hPa 0,0 l/m 9,4 km/h (2 Bft) W-NW 298 7,5 C 24,2 C 16,1 km/h (3 Bft)
01.06.2023 14:12 24,9 C 35 % 1016,2 hPa 0,0 l/m 11,3 km/h (2 Bft) W-NW 301 8,4 C 23,8 C 16,1 km/h (3 Bft)
01.06.2023 14:11 24,9 C 33 % 1016,2 hPa 0,0 l/m 3,2 km/h (1 Bft) NW 315 7,5 C 24,9 C 6,4 km/h (2 Bft)
01.06.2023 14:10 24,9 C 34 % 1016,1 hPa 0,0 l/m 4,5 km/h (1 Bft) S 169 7,9 C 24,9 C 12,9 km/h (3 Bft)
01.06.2023 14:09 24,9 C 36 % 1016,1 hPa 0,0 l/m 12,2 km/h (2 Bft) W-NW 298 8,8 C 23,6 C 16,1 km/h (3 Bft)
01.06.2023 14:08 24,7 C 35 % 1016,2 hPa 0,0 l/m 12,8 km/h (3 Bft) W-NW 300 8,2 C 23,3 C 16,1 km/h (3 Bft)
01.06.2023 14:07 24,7 C 34 % 1016,2 hPa 0,0 l/m 7,8 km/h (2 Bft) W 277 7,8 C 24,3 C 12,9 km/h (3 Bft)
01.06.2023 14:06 24,7 C 36 % 1016,2 hPa 0,0 l/m 6,7 km/h (2 Bft) SW 232 8,6 C 24,6 C 9,7 km/h (2 Bft)
01.06.2023 14:05 24,7 C 35 % 1016,2 hPa 0,0 l/m 5,3 km/h (1 Bft) W-NW 290 8,2 C 24,7 C 8,0 km/h (2 Bft)
01.06.2023 14:04 24,8 C 36 % 1016,2 hPa 0,0 l/m 7,7 km/h (2 Bft) SW 235 8,7 C 24,5 C 11,3 km/h (2 Bft)
01.06.2023 14:03 24,9 C 35 % 1016,2 hPa 0,0 l/m 7,5 km/h (2 Bft) W-NW 286 8,4 C 24,6 C 12,9 km/h (3 Bft)
01.06.2023 14:02 24,8 C 35 % 1016,2 hPa 0,0 l/m 8,8 km/h (2 Bft) N-NW 337 8,3 C 24,2 C 12,9 km/h (3 Bft)
01.06.2023 14:01 24,9 C 36 % 1016,2 hPa 0,0 l/m 10,6 km/h (2 Bft) N-NW 336 8,8 C 23,9 C 14,5 km/h (3 Bft)
01.06.2023 14:00 24,7 C 36 % 1016,2 hPa 0,0 l/m 12,7 km/h (3 Bft) N 360 8,6 C 23,3 C 17,7 km/h (3 Bft)
01.06.2023 13:59 24,6 C 35 % 1016,2 hPa 0,0 l/m 8,2 km/h (2 Bft) W 265 8,1 C 24,1 C 11,3 km/h (2 Bft)
01.06.2023 13:58 24,7 C 36 % 1016,2 hPa 0,0 l/m 11,1 km/h (2 Bft) W 271 8,6 C 23,6 C 12,9 km/h (3 Bft)
01.06.2023 13:57 24,6 C 36 % 1016,2 hPa 0,0 l/m 5,6 km/h (2 Bft) NW 313 8,5 C 24,6 C 8,0 km/h (2 Bft)
01.06.2023 13:56 24,6 C 38 % 1016,2 hPa 0,0 l/m 10,1 km/h (2 Bft) NW 323 9,3 C 23,7 C 14,5 km/h (3 Bft)
01.06.2023 13:55 24,6 C 39 % 1016,3 hPa 0,0 l/m 8,0 km/h (2 Bft) N-NW 341 9,7 C 24,2 C 12,9 km/h (3 Bft)
01.06.2023 13:54 24,4 C 37 % 1016,2 hPa 0,0 l/m 6,0 km/h (2 Bft) NW 320 8,8 C 24,4 C 12,9 km/h (3 Bft)
01.06.2023 13:53 24,3 C 37 % 1016,3 hPa 0,0 l/m 6,3 km/h (2 Bft) N-NO 13 8,7 C 24,3 C 8,0 km/h (2 Bft)
01.06.2023 13:52 24,2 C 38 % 1016,3 hPa 0,0 l/m 11,7 km/h (2 Bft) N 5 9,0 C 22,9 C 16,1 km/h (3 Bft)
01.06.2023 13:51 23,9 C 38 % 1016,3 hPa 0,0 l/m 7,8 km/h (2 Bft) W-NW 300 8,7 C 23,5 C 12,9 km/h (3 Bft)
01.06.2023 13:50 23,8 C 38 % 1016,3 hPa 0,0 l/m 7,2 km/h (2 Bft) SW 227 8,6 C 23,6 C 9,7 km/h (2 Bft)
01.06.2023 13:49 23,8 C 40 % 1016,3 hPa 0,0 l/m 1,2 km/h (1 Bft) S 191 9,4 C 23,8 C 4,8 km/h (1 Bft)
01.06.2023 13:48 23,8 C 38 % 1016,3 hPa 0,0 l/m 1,0 km/h (0 Bft) N-NO 16 8,6 C 23,8 C 3,2 km/h (1 Bft)
01.06.2023 13:47 23,7 C 41 % 1016,3 hPa 0,0 l/m 4,1 km/h (1 Bft) N 5 9,7 C 23,7 C 4,8 km/h (1 Bft)
01.06.2023 13:46 23,7 C 38 % 1016,3 hPa 0,0 l/m 3,5 km/h (1 Bft) N-NW 338 8,5 C 23,7 C 4,8 km/h (1 Bft)
01.06.2023 13:45 23,7 C 39 % 1016,3 hPa 0,0 l/m 3,8 km/h (1 Bft) N-NO 14 8,9 C 23,7 C 4,8 km/h (1 Bft)
01.06.2023 13:44 23,7 C 41 % 1016,3 hPa 0,0 l/m 3,8 km/h (1 Bft) N-NO 29 9,7 C 23,7 C 6,4 km/h (2 Bft)
01.06.2023 13:43 23,6 C 48 % 1016,4 hPa 0,0 l/m 1,8 km/h (1 Bft) SO 138 11,9 C 23,6 C 3,2 km/h (1 Bft)
01.06.2023 13:42 23,6 C 46 % 1016,4 hPa 0,0 l/m 3,2 km/h (1 Bft) O-NO 60 11,3 C 23,6 C 6,4 km/h (2 Bft)
01.06.2023 13:41 23,6 C 41 % 1016,4 hPa 0,0 l/m 1,2 km/h (1 Bft) W 265 9,6 C 23,6 C 3,2 km/h (1 Bft)
01.06.2023 13:40 23,6 C 39 % 1016,4 hPa 0,0 l/m 0,4 km/h (0 Bft) N 360 8,8 C 23,6 C 1,6 km/h (1 Bft)
01.06.2023 13:39 23,7 C 40 % 1016,4 hPa 0,0 l/m 1,7 km/h (1 Bft) N 360 9,3 C 23,7 C 4,8 km/h (1 Bft)
01.06.2023 13:38 23,8 C 38 % 1016,4 hPa 0,0 l/m 2,3 km/h (1 Bft) NW 321 8,6 C 23,8 C 3,2 km/h (1 Bft)
01.06.2023 13:37 23,8 C 40 % 1016,4 hPa 0,0 l/m 3,1 km/h (1 Bft) NW 307 9,4 C 23,8 C 4,8 km/h (1 Bft)
01.06.2023 13:36 23,8 C 40 % 1016,4 hPa 0,0 l/m 5,5 km/h (2 Bft) N 5 9,4 C 23,8 C 6,4 km/h (2 Bft)
01.06.2023 13:35 23,8 C 44 % 1016,5 hPa 0,0 l/m 3,0 km/h (1 Bft) N 355 10,8 C 23,8 C 6,4 km/h (2 Bft)
01.06.2023 13:34 23,7 C 41 % 1016,5 hPa 0,0 l/m 2,7 km/h (1 Bft) O 85 9,7 C 23,7 C 4,8 km/h (1 Bft)
01.06.2023 13:33 23,7 C 44 % 1016,5 hPa 0,0 l/m 1,8 km/h (1 Bft) O-NO 69 10,7 C 23,7 C 3,2 km/h (1 Bft)
01.06.2023 13:32 23,6 C 43 % 1016,5 hPa 0,0 l/m 4,1 km/h (1 Bft) SO 144 10,3 C 23,6 C 6,4 km/h (2 Bft)
01.06.2023 13:31 23,7 C 43 % 1016,5 hPa 0,0 l/m 3,2 km/h (1 Bft) S-SO 155 10,4 C 23,7 C 4,8 km/h (1 Bft)
01.06.2023 13:30 23,8 C 42 % 1016,5 hPa 0,0 l/m 4,6 km/h (1 Bft) S-SO 159 10,1 C 23,8 C 6,4 km/h (2 Bft)
01.06.2023 13:29 23,8 C 41 % 1016,5 hPa 0,0 l/m 7,7 km/h (2 Bft) O-SO 107 9,7 C 23,4 C 12,9 km/h (3 Bft)
01.06.2023 13:28 23,8 C 42 % 1016,6 hPa 0,0 l/m 8,1 km/h (2 Bft) O-SO 103 10,1 C 23,3 C 11,3 km/h (2 Bft)
01.06.2023 13:27 23,8 C 45 % 1016,5 hPa 0,0 l/m 6,0 km/h (2 Bft) O-SO 113 11,1 C 23,8 C 9,7 km/h (2 Bft)
01.06.2023 13:26 23,8 C 41 % 1016,5 hPa 0,0 l/m 9,0 km/h (2 Bft) O-SO 117 9,7 C 23,1 C 11,3 km/h (2 Bft)
01.06.2023 13:25 23,9 C 44 % 1016,6 hPa 0,0 l/m 11,8 km/h (2 Bft) SO 128 10,9 C 22,6 C 14,5 km/h (3 Bft)
01.06.2023 13:24 23,9 C 39 % 1016,6 hPa 0,0 l/m 4,1 km/h (1 Bft) O-SO 113 9,1 C 23,9 C 9,7 km/h (2 Bft)
01.06.2023 13:23 23,7 C 40 % 1016,5 hPa 0,0 l/m 3,3 km/h (1 Bft) N-NW 336 9,3 C 23,7 C 4,8 km/h (1 Bft)
01.06.2023 13:22 23,6 C 39 % 1016,5 hPa 0,0 l/m 2,0 km/h (1 Bft) N 355 8,8 C 23,6 C 4,8 km/h (1 Bft)
01.06.2023 13:21 23,6 C 40 % 1016,6 hPa 0,0 l/m 4,6 km/h (1 Bft) O-NO 62 9,2 C 23,6 C 8,0 km/h (2 Bft)
01.06.2023 13:20 23,7 C 42 % 1016,6 hPa 0,0 l/m 3,2 km/h (1 Bft) O-SO 120 10,0 C 23,7 C 8,0 km/h (2 Bft)
01.06.2023 13:19 23,7 C 38 % 1016,6 hPa 0,0 l/m 2,2 km/h (1 Bft) O-SO 116 8,5 C 23,7 C 6,4 km/h (2 Bft)
01.06.2023 13:18 23,6 C 40 % 1016,6 hPa 0,0 l/m 3,0 km/h (1 Bft) O-NO 61 9,2 C 23,6 C 8,0 km/h (2 Bft)
01.06.2023 13:17 23,5 C 41 % 1016,6 hPa 0,0 l/m 1,3 km/h (1 Bft) O 101 9,5 C 23,5 C 3,2 km/h (1 Bft)
01.06.2023 13:16 23,4 C 40 % 1016,6 hPa 0,0 l/m 2,5 km/h (1 Bft) S 170 9,0 C 23,4 C 4,8 km/h (1 Bft)
01.06.2023 13:15 23,4 C 40 % 1016,6 hPa 0,0 l/m 4,4 km/h (1 Bft) S 173 9,0 C 23,4 C 6,4 km/h (2 Bft)
01.06.2023 13:14 23,6 C 41 % 1016,6 hPa 0,0 l/m 3,9 km/h (1 Bft) S-SO 167 9,6 C 23,6 C 6,4 km/h (2 Bft)
01.06.2023 13:13 23,7 C 39 % 1016,6 hPa 0,0 l/m 6,6 km/h (2 Bft) S 172 8,9 C 23,6 C 8,0 km/h (2 Bft)
01.06.2023 13:12 23,8 C 39 % 1016,6 hPa 0,0 l/m 3,2 km/h (1 Bft) S-SO 162 9,0 C 23,8 C 6,4 km/h (2 Bft)
01.06.2023 13:11 23,8 C 40 % 1016,6 hPa 0,0 l/m 3,1 km/h (1 Bft) S 179 9,4 C 23,8 C 4,8 km/h (1 Bft)
01.06.2023 13:10 23,9 C 42 % 1016,6 hPa 0,0 l/m 1,8 km/h (1 Bft) SO 142 10,2 C 23,9 C 3,2 km/h (1 Bft)
01.06.2023 13:09 23,8 C 42 % 1016,6 hPa 0,0 l/m 2,4 km/h (1 Bft) O-SO 115 10,1 C 23,8 C 4,8 km/h (1 Bft)
01.06.2023 13:08 23,7 C 42 % 1016,6 hPa 0,0 l/m 2,3 km/h (1 Bft) O-NO 78 10,0 C 23,7 C 4,8 km/h (1 Bft)
01.06.2023 13:07 23,7 C 45 % 1016,6 hPa 0,0 l/m 3,6 km/h (1 Bft) N 360 11,1 C 23,7 C 4,8 km/h (1 Bft)
01.06.2023 13:06 23,7 C 44 % 1016,6 hPa 0,0 l/m 3,0 km/h (1 Bft) O-NO 78 10,7 C 23,7 C 6,4 km/h (2 Bft)
01.06.2023 13:05 23,6 C 43 % 1016,6 hPa 0,0 l/m 2,4 km/h (1 Bft) S 188 10,3 C 23,6 C 6,4 km/h (2 Bft)
01.06.2023 13:04 23,6 C 41 % 1016,6 hPa 0,0 l/m 5,4 km/h (2 Bft) SO 142 9,6 C 23,6 C 8,0 km/h (2 Bft)
01.06.2023 13:03 23,6 C 41 % 1016,6 hPa 0,0 l/m 4,6 km/h (1 Bft) S-SO 159 9,6 C 23,6 C 6,4 km/h (2 Bft)
01.06.2023 13:02 23,7 C 41 % 1016,6 hPa 0,0 l/m 6,4 km/h (2 Bft) O 95 9,7 C 23,7 C 9,7 km/h (2 Bft)
01.06.2023 13:01 23,7 C 44 % 1016,6 hPa 0,0 l/m 7,4 km/h (2 Bft) O-SO 115 10,7 C 23,4 C 12,9 km/h (3 Bft)
01.06.2023 13:00 23,7 C 43 % 1016,6 hPa 0,0 l/m 3,6 km/h (1 Bft) SO 127 10,4 C 23,7 C 12,9 km/h (3 Bft)
01.06.2023 12:59 23,5 C 44 % 1016,6 hPa 0,0 l/m 2,6 km/h (1 Bft) S-SO 153 10,5 C 23,5 C 4,8 km/h (1 Bft)
01.06.2023 12:58 23,4 C 43 % 1016,6 hPa 0,0 l/m 1,8 km/h (1 Bft) SO 127 10,1 C 23,4 C 3,2 km/h (1 Bft)
01.06.2023 12:57 23,3 C 41 % 1016,6 hPa 0,0 l/m 0,9 km/h (0 Bft) S-SW 210 9,3 C 23,3 C 1,6 km/h (1 Bft)
01.06.2023 12:56 23,3 C 42 % 1016,7 hPa 0,0 l/m 1,8 km/h (1 Bft) NW 321 9,7 C 23,3 C 3,2 km/h (1 Bft)
01.06.2023 12:55 23,4 C 40 % 1016,6 hPa 0,0 l/m 1,1 km/h (1 Bft) O-SO 123 9,0 C 23,4 C 1,6 km/h (1 Bft)
01.06.2023 12:54 23,4 C 38 % 1016,6 hPa 0,0 l/m 0,9 km/h (0 Bft) NW 308 8,3 C 23,4 C 1,6 km/h (1 Bft)
_ Min-Zeit 05:40 14:21 14:28 - 19:52 - - 05:40 05:40 19:52
Minimum _ 7,3 C 31 % 1016,0 hPa - 0,0 km/h (0 Bft) - - 5,8 C 7,3 C 0,0 km/h (0 Bft)
_ Max-Zeit 14:14 05:42 15:05 15:00 14:14 - - 13:43 14:10 15:16
Maximum _ 25,1 C 92 % 1019,7 hPa 0,0 l/m 17,2 km/h
NW (3 Bft)
- - 11,9 C 24,9 C 20,9 km/h
O-SO (4 Bft)
Durchschnitt _ 17,4 C 60 % 1018,1 hPa #0,0 l/m 2,9 km/h (1 Bft) W - 8,5 C 17,3 C 5,2 km/h (1 Bft)
(c) Wettermessnetz Ostbayern